Details for AirAsia India at VIDP




Go Back


Latest METAR
Local Time

VIDP 241330Z 10006KT 2200 HZ SCT040 SCT100 27/16 Q1012 NOSIG

24/02/2018, 19:36:34

Description
Results
AirAsia India Logo
Number of Pilots based at VIDP
0 Pilots Based here
Number of AirAsia India Flights Departed from VIDP
0 Flights Departed
Number of AirAsia India Flights Arrived at VIDP
0 Flights Arrived
Number of AirAsia India Schedules Departing from VIDP
11 Schedules
Number of AirAsia India Schedules Arriving at VIDP
11 Schedules
Number of AirAsia India Schedules Departing from VIDP availible today
10 Schedules Today
Number of AirAsia India Schedules Arriving at VIDP availible today
10 Schedules Today
Average Landing Rate at VIDP
-172 fpm
AirAsia India Average Landing Rate at VIDP
0 fpm
Total Fuel Purchased at VIDP by AirAsia India
0.00 kgs / 0.00 lbs

Pilots Based at VIDP


Pilot ID
Pilot Name
Pilot Rank
No. of Flights
No. of Flying Hours
There are no pilots assigned to this hub!   Will you be the first?
Content